createdAt,value
2019-01-27T00:00:51.615Z,45.95
2019-01-27T00:03:23.203Z,46.80
2019-01-27T00:05:53.629Z,44.73
2019-01-27T00:08:24.024Z,45.58
2019-01-27T00:10:57.505Z,45.38
2019-01-27T00:13:28.333Z,44.63
2019-01-27T00:15:59.123Z,43.85
2019-01-27T00:18:29.839Z,44.13
2019-01-27T00:21:00.628Z,43.33
2019-01-27T00:23:31.284Z,42.43
2019-01-27T00:26:01.822Z,42.60
2019-01-27T00:28:34.162Z,43.28
2019-01-27T00:31:04.547Z,42.53
2019-01-27T00:33:35.080Z,40.85
2019-01-27T00:36:06.034Z,40.03
2019-01-27T00:38:36.398Z,39.63
2019-01-27T00:41:06.807Z,40.17
2019-01-27T00:43:37.482Z,39.50
2019-01-27T00:46:08.206Z,38.73
2019-01-27T00:48:38.962Z,40.10
2019-01-27T00:51:09.415Z,40.00
2019-01-27T00:53:40.036Z,38.23
2019-01-27T00:56:10.556Z,37.28
2019-01-27T00:58:40.888Z,37.33
2019-01-27T01:01:11.515Z,36.08
2019-01-27T01:03:42.217Z,38.02
2019-01-27T01:06:14.499Z,36.95
2019-01-27T01:08:45.202Z,34.50
2019-01-27T01:11:16.174Z,36.45
2019-01-27T01:13:46.998Z,36.30
2019-01-27T01:16:18.576Z,35.43
2019-01-27T01:18:49.121Z,36.15
2019-01-27T01:21:19.781Z,34.78
2019-01-27T01:23:50.551Z,35.50
2019-01-27T01:26:21.263Z,32.73
2019-01-27T01:28:51.713Z,35.28
2019-01-27T01:31:22.136Z,33.35
2019-01-27T01:33:52.722Z,33.00
2019-01-27T01:36:24.283Z,32.75
2019-01-27T01:38:54.917Z,32.35
2019-01-27T01:41:25.584Z,33.30
2019-01-27T01:43:59.086Z,33.35
2019-01-27T01:46:29.546Z,31.57
2019-01-27T01:49:01.237Z,32.38
2019-01-27T01:51:32.021Z,31.12
2019-01-27T01:54:03.545Z,30.32
2019-01-27T01:56:34.075Z,30.35
2019-01-27T01:59:04.742Z,30.43
2019-01-27T02:01:35.222Z,31.82
2019-01-27T02:04:05.760Z,29.92
2019-01-27T02:06:36.413Z,30.77
2019-01-27T02:09:11.123Z,30.08
2019-01-27T02:11:41.578Z,30.08
2019-01-27T02:14:12.232Z,29.05
2019-01-27T02:16:42.866Z,28.83
2019-01-27T02:19:13.530Z,28.40
2019-01-27T02:21:45.248Z,28.98
2019-01-27T02:24:15.843Z,27.93
2019-01-27T02:26:46.461Z,28.45
2019-01-27T02:29:18.534Z,28.32
2019-01-27T02:31:49.249Z,28.17
2019-01-27T02:34:19.697Z,28.47
2019-01-27T02:36:50.404Z,25.52
2019-01-27T02:39:20.870Z,26.17
2019-01-27T02:41:51.217Z,28.02
2019-01-27T02:44:21.503Z,27.05
2019-01-27T02:46:52.093Z,27.05
2019-01-27T02:49:22.543Z,25.27
2019-01-27T02:51:53.302Z,25.97
2019-01-27T02:54:23.699Z,26.42
2019-01-27T02:56:54.292Z,24.98
2019-01-27T02:59:24.688Z,23.65
2019-01-27T03:01:55.099Z,26.02
2019-01-27T03:04:26.196Z,25.27
2019-01-27T03:07:04.449Z,26.25
2019-01-27T03:09:40.986Z,24.55
2019-01-27T03:12:11.715Z,24.57
2019-01-27T03:14:42.032Z,23.85
2019-01-27T03:17:15.254Z,23.40
2019-01-27T03:19:49.290Z,23.80
2019-01-27T03:22:19.767Z,23.85
2019-01-27T03:24:50.516Z,24.32
2019-01-27T03:27:21.079Z,23.92
2019-01-27T03:29:51.588Z,22.85
2019-01-27T03:32:22.122Z,22.22
2019-01-27T03:34:52.595Z,23.05
2019-01-27T03:37:23.225Z,22.55
2019-01-27T03:39:53.901Z,21.82
2019-01-27T03:42:24.559Z,23.67
2019-01-27T03:44:54.945Z,22.15
2019-01-27T03:47:25.599Z,23.47
2019-01-27T03:49:56.212Z,21.68
2019-01-27T03:52:27.978Z,21.87
2019-01-27T03:54:58.411Z,22.20
2019-01-27T03:57:29.024Z,21.97
2019-01-27T03:59:59.646Z,21.15
2019-01-27T04:02:30.398Z,21.20
2019-01-27T04:05:01.194Z,21.00
2019-01-27T04:07:32.168Z,21.55
2019-01-27T04:10:02.577Z,20.85
2019-01-27T04:12:33.135Z,21.05
2019-01-27T04:15:03.710Z,21.65
2019-01-27T04:17:34.896Z,20.15
2019-01-27T04:20:06.658Z,20.48
2019-01-27T04:22:38.300Z,19.62
2019-01-27T04:25:08.976Z,20.90
2019-01-27T04:27:39.463Z,19.87
2019-01-27T04:30:17.007Z,19.98
2019-01-27T04:32:47.637Z,19.48
2019-01-27T04:35:17.942Z,19.40
2019-01-27T04:37:48.574Z,19.57
2019-01-27T04:40:20.373Z,18.77
2019-01-27T04:42:50.712Z,19.60
2019-01-27T04:45:26.592Z,18.65
2019-01-27T04:47:57.076Z,19.50
2019-01-27T04:50:27.514Z,18.42
2019-01-27T04:52:58.139Z,19.25
2019-01-27T04:55:31.681Z,18.48
2019-01-27T04:58:02.089Z,18.25
2019-01-27T05:00:32.947Z,17.48
2019-01-27T05:03:23.764Z,17.67
2019-01-27T05:05:54.157Z,18.15
2019-01-27T05:08:24.834Z,16.85
2019-01-27T05:10:55.434Z,17.50
2019-01-27T05:13:25.919Z,18.15
2019-01-27T05:15:56.421Z,17.05
2019-01-27T05:18:26.926Z,17.48
2019-01-27T05:20:57.464Z,17.60
2019-01-27T05:23:27.787Z,17.12
2019-01-27T05:25:58.674Z,16.82
2019-01-27T05:28:29.359Z,16.77
2019-01-27T05:30:59.930Z,17.17
2019-01-27T05:33:30.395Z,17.05
2019-01-27T05:36:00.886Z,16.75
2019-01-27T05:38:32.339Z,17.48
2019-01-27T05:41:02.837Z,16.02
2019-01-27T05:43:33.428Z,16.27
2019-01-27T05:46:03.926Z,14.95
2019-01-27T05:48:34.348Z,15.90
2019-01-27T05:51:04.804Z,25.00
2019-01-27T05:53:35.359Z,23.60
2019-01-27T05:56:05.710Z,24.35
2019-01-27T05:58:36.307Z,25.77
2019-01-27T06:01:06.779Z,26.90
2019-01-27T06:03:37.149Z,34.58
2019-01-27T06:06:07.631Z,32.45
2019-01-27T06:08:38.452Z,35.40
2019-01-27T06:11:08.900Z,43.20
2019-01-27T06:13:39.276Z,41.65
2019-01-27T06:16:09.776Z,44.05
2019-01-27T06:18:40.252Z,45.58
2019-01-27T06:21:10.649Z,38.10
2019-01-27T06:23:41.381Z,36.40
2019-01-27T06:26:11.845Z,38.88
2019-01-27T06:28:42.852Z,44.18
2019-01-27T06:31:13.380Z,44.05
2019-01-27T06:33:51.453Z,49.08
2019-01-27T06:36:22.250Z,46.85
2019-01-27T06:38:53.333Z,50.70
2019-01-27T06:41:23.801Z,48.35
2019-01-27T06:43:54.483Z,47.53
2019-01-27T06:46:25.455Z,55.60
2019-01-27T06:48:58.651Z,49.45
2019-01-27T06:51:29.692Z,49.15
2019-01-27T06:54:00.349Z,47.93
2019-01-27T06:56:31.956Z,46.48
2019-01-27T06:59:07.891Z,46.37
2019-01-27T07:01:52.541Z,47.03
2019-01-27T07:04:28.445Z,46.98
2019-01-27T07:07:29.946Z,44.93
2019-01-27T07:10:19.394Z,48.28
2019-01-27T07:13:03.357Z,51.58
2019-01-27T07:16:00.006Z,52.98
2019-01-27T07:18:51.897Z,56.30
2019-01-27T07:21:41.721Z,51.53
2019-01-27T07:24:23.169Z,58.02
2019-01-27T07:27:12.541Z,54.95
2019-01-27T07:30:01.455Z,56.42
2019-01-27T07:32:50.158Z,56.37
2019-01-27T07:35:39.398Z,55.40
2019-01-27T07:38:21.852Z,56.58
2019-01-27T07:41:13.766Z,54.98
2019-01-27T07:45:03.834Z,53.95
2019-01-27T07:47:55.357Z,53.68
2019-01-27T07:52:03.111Z,55.83
2019-01-27T07:54:50.840Z,54.95
2019-01-27T07:57:38.774Z,65.55
2019-01-27T08:00:34.196Z,61.98
2019-01-27T08:03:21.783Z,61.20
2019-01-27T08:06:10.865Z,64.40
2019-01-27T08:08:58.710Z,60.90
2019-01-27T08:11:43.225Z,64.00
2019-01-27T08:14:29.299Z,61.13
2019-01-27T08:17:11.853Z,59.13
2019-01-27T08:20:04.620Z,56.83
2019-01-27T08:22:42.318Z,55.35
2019-01-27T08:25:47.958Z,58.08
2019-01-27T08:28:43.655Z,54.88
2019-01-27T08:31:31.816Z,52.05
2019-01-27T08:34:19.441Z,54.42
2019-01-27T08:36:58.883Z,51.95
2019-01-27T08:39:43.547Z,51.10
2019-01-27T08:42:48.233Z,52.08
2019-01-27T08:45:52.481Z,50.30
2019-01-27T08:48:22.819Z,52.95
2019-01-27T08:50:53.382Z,55.65
2019-01-27T08:53:23.917Z,53.58
2019-01-27T08:55:54.461Z,55.85
2019-01-27T08:58:26.716Z,55.73
2019-01-27T09:01:10.213Z,55.80
2019-01-27T09:03:56.253Z,56.73
2019-01-27T09:06:42.761Z,54.30
2019-01-27T09:09:32.377Z,57.80
2019-01-27T09:12:25.137Z,55.38
2019-01-27T09:15:29.664Z,63.02
2019-01-27T09:18:26.106Z,64.03
2019-01-27T09:21:09.248Z,60.20
2019-01-27T09:23:57.393Z,60.52
2019-01-27T09:26:33.547Z,60.33
2019-01-27T09:29:08.377Z,64.92
2019-01-27T09:32:06.906Z,65.15
2019-01-27T09:34:59.431Z,66.60
2019-01-27T09:37:47.988Z,66.07
2019-01-27T09:40:52.544Z,67.92
2019-01-27T09:43:44.826Z,67.95
2019-01-27T09:46:46.343Z,65.20
2019-01-27T09:49:44.931Z,68.45
2019-01-27T09:52:21.054Z,87.50
2019-01-27T09:55:07.838Z,161.37
2019-01-27T09:57:47.318Z,122.28
2019-01-27T10:00:29.412Z,124.12
2019-01-27T10:03:15.848Z,116.80
2019-01-27T10:05:58.087Z,113.15
2019-01-27T10:08:39.681Z,121.95
2019-01-27T10:11:41.284Z,116.42
2019-01-27T10:14:21.227Z,116.30
2019-01-27T10:17:11.616Z,117.00
2019-01-27T10:20:04.381Z,116.17
2019-01-27T10:23:05.861Z,113.97
2019-01-27T10:25:49.712Z,112.08
2019-01-27T10:28:38.691Z,112.50
2019-01-27T10:31:43.883Z,113.40
2019-01-27T10:34:25.512Z,135.15
2019-01-27T10:37:19.867Z,143.02
2019-01-27T10:40:09.888Z,143.47
2019-01-27T10:42:50.461Z,142.32
2019-01-27T10:45:34.747Z,140.45
2019-01-27T10:48:26.779Z,138.35
2019-01-27T10:51:14.636Z,143.72
2019-01-27T10:54:06.847Z,149.77
2019-01-27T10:56:56.004Z,161.18
2019-01-27T10:59:48.182Z,159.75
2019-01-27T11:02:43.299Z,155.65
2019-01-27T11:05:33.137Z,153.50
2019-01-27T11:08:22.568Z,150.22
2019-01-27T11:11:03.449Z,147.30
2019-01-27T11:13:52.651Z,147.32
2019-01-27T11:16:40.473Z,139.95
2019-01-27T11:19:28.358Z,140.92
2019-01-27T11:22:33.519Z,140.85
2019-01-27T11:25:25.474Z,133.27
2019-01-27T11:28:20.732Z,133.03
2019-01-27T11:31:00.597Z,130.70
2019-01-27T11:33:45.004Z,132.55
2019-01-27T11:36:33.147Z,133.87
2019-01-27T11:39:21.756Z,139.50
2019-01-27T11:42:09.695Z,143.62
2019-01-27T11:44:55.522Z,144.10
2019-01-27T11:47:43.625Z,153.40
2019-01-27T11:50:35.913Z,147.50
2019-01-27T11:53:08.189Z,147.90
2019-01-27T11:55:38.615Z,152.60
2019-01-27T11:58:09.239Z,151.65
2019-01-27T12:00:41.689Z,153.18
2019-01-27T12:03:13.664Z,152.17
2019-01-27T12:05:44.294Z,158.25
2019-01-27T12:08:14.660Z,153.42
2019-01-27T12:10:45.308Z,158.00
2019-01-27T12:13:15.905Z,168.45
2019-01-27T12:15:46.208Z,172.60
2019-01-27T12:18:16.636Z,179.95
2019-01-27T12:20:47.163Z,193.22
2019-01-27T12:23:17.580Z,193.68
2019-01-27T12:25:48.146Z,193.37
2019-01-27T12:28:18.549Z,195.68
2019-01-27T12:30:48.962Z,195.05
2019-01-27T12:33:19.468Z,197.30
2019-01-27T12:35:49.790Z,193.15
2019-01-27T12:38:20.354Z,196.18
2019-01-27T12:40:50.675Z,191.00
2019-01-27T12:43:21.004Z,194.77
2019-01-27T12:45:51.347Z,192.80
2019-01-27T12:48:21.662Z,197.37
2019-01-27T12:50:52.081Z,202.30
2019-01-27T12:53:22.791Z,194.13
2019-01-27T12:55:53.038Z,194.20
2019-01-27T12:58:23.275Z,192.30
2019-01-27T13:00:57.473Z,191.18
2019-01-27T13:03:27.704Z,186.18
2019-01-27T13:05:58.102Z,176.87
2019-01-27T13:08:29.893Z,179.12
2019-01-27T13:11:05.661Z,173.22
2019-01-27T13:13:36.977Z,169.00
2019-01-27T13:16:07.432Z,169.75
2019-01-27T13:18:37.825Z,163.80
2019-01-27T13:21:08.250Z,163.00
2019-01-27T13:23:38.814Z,163.92
2019-01-27T13:26:09.264Z,157.97
2019-01-27T13:28:39.726Z,159.07
2019-01-27T13:31:10.125Z,153.62
2019-01-27T13:33:40.409Z,143.13
2019-01-27T13:36:10.868Z,149.10
2019-01-27T13:38:41.129Z,147.98
2019-01-27T13:41:11.469Z,146.60
2019-01-27T13:43:41.759Z,148.40
2019-01-27T13:46:15.082Z,139.25
2019-01-27T13:48:45.304Z,137.28
2019-01-27T13:51:16.651Z,132.57
2019-01-27T13:53:47.284Z,132.63
2019-01-27T13:56:17.713Z,131.27
2019-01-27T13:58:48.074Z,135.32
2019-01-27T14:01:18.525Z,136.25
2019-01-27T14:03:49.095Z,136.95
2019-01-27T14:06:19.535Z,141.12
2019-01-27T14:08:51.507Z,133.45
2019-01-27T14:11:22.349Z,136.68
2019-01-27T14:13:52.723Z,132.50
2019-01-27T14:16:23.265Z,127.35
2019-01-27T14:18:53.633Z,131.45
2019-01-27T14:21:23.976Z,129.57
2019-01-27T14:23:54.400Z,130.07
2019-01-27T14:26:24.696Z,124.67
2019-01-27T14:28:58.388Z,125.02
2019-01-27T14:31:30.274Z,123.82
2019-01-27T14:34:00.749Z,124.00
2019-01-27T14:36:31.041Z,121.75
2019-01-27T14:39:01.423Z,133.07
2019-01-27T14:41:33.326Z,131.93
2019-01-27T14:44:03.711Z,130.07
2019-01-27T14:46:34.054Z,134.70
2019-01-27T14:49:04.453Z,126.18
2019-01-27T14:51:34.902Z,125.50
2019-01-27T14:54:05.527Z,123.60
2019-01-27T14:56:35.932Z,121.75
2019-01-27T14:59:06.202Z,114.82
2019-01-27T15:01:36.845Z,124.27
2019-01-27T15:04:07.796Z,122.60
2019-01-27T15:06:38.220Z,118.65
2019-01-27T15:09:10.041Z,124.47
2019-01-27T15:11:40.394Z,126.07
2019-01-27T15:14:10.733Z,131.80
2019-01-27T15:16:41.093Z,122.13
2019-01-27T15:19:11.395Z,123.42
2019-01-27T15:21:41.976Z,121.00
2019-01-27T15:24:12.230Z,118.82
2019-01-27T15:26:42.603Z,116.90
2019-01-27T15:29:12.857Z,115.97
2019-01-27T15:31:43.194Z,119.82
2019-01-27T15:34:13.562Z,122.82
2019-01-27T15:36:43.945Z,121.02
2019-01-27T15:39:14.220Z,121.80
2019-01-27T15:41:44.634Z,122.90
2019-01-27T15:44:14.977Z,117.05
2019-01-27T15:46:45.273Z,113.65
2019-01-27T15:49:15.608Z,113.42
2019-01-27T15:51:45.976Z,114.20
2019-01-27T15:54:16.298Z,109.63
2019-01-27T15:56:48.035Z,107.47
2019-01-27T15:59:18.317Z,104.95
2019-01-27T16:01:48.795Z,103.87
2019-01-27T16:04:19.180Z,101.60
2019-01-27T16:06:49.469Z,99.22
2019-01-27T16:09:20.946Z,96.32
2019-01-27T16:11:55.297Z,93.40
2019-01-27T16:14:27.337Z,94.55
2019-01-27T16:16:58.104Z,90.92
2019-01-27T16:19:28.529Z,89.15
2019-01-27T16:22:01.142Z,85.45
2019-01-27T16:24:35.969Z,86.50
2019-01-27T16:27:06.883Z,83.37
2019-01-27T16:30:09.045Z,80.57
2019-01-27T16:32:42.265Z,77.62
2019-01-27T16:35:18.349Z,78.20
2019-01-27T16:37:50.735Z,75.62
2019-01-27T16:40:25.106Z,74.85
2019-01-27T16:42:56.128Z,75.92
2019-01-27T16:45:27.735Z,77.35
2019-01-27T16:48:00.545Z,77.82
2019-01-27T16:50:31.814Z,77.80
2019-01-27T16:53:04.592Z,76.55
2019-01-27T16:55:36.308Z,74.65
2019-01-27T16:58:06.568Z,76.47
2019-01-27T17:00:39.106Z,75.40
2019-01-27T17:03:09.619Z,74.67
2019-01-27T17:05:44.394Z,71.50
2019-01-27T17:08:15.847Z,76.00
2019-01-27T17:10:46.115Z,75.17
2019-01-27T17:13:16.859Z,73.22
2019-01-27T17:15:47.256Z,73.22
2019-01-27T17:18:17.507Z,76.72
2019-01-27T17:20:47.960Z,74.00
2019-01-27T17:23:20.718Z,71.35
2019-01-27T17:25:53.583Z,73.97
2019-01-27T17:28:22.999Z,74.17
2019-01-27T17:30:54.194Z,76.67
2019-01-27T17:33:24.551Z,76.97
2019-01-27T17:35:54.825Z,71.67
2019-01-27T17:38:25.142Z,79.53
2019-01-27T17:40:55.410Z,77.47
2019-01-27T17:43:25.810Z,80.07
2019-01-27T17:45:56.063Z,77.12
2019-01-27T17:48:27.139Z,81.70
2019-01-27T17:50:57.544Z,78.62
2019-01-27T17:53:30.339Z,78.47
2019-01-27T17:56:00.675Z,77.05
2019-01-27T17:59:01.886Z,75.08
2019-01-27T18:02:06.165Z,77.62
2019-01-27T18:04:55.306Z,75.25
2019-01-27T18:07:36.805Z,73.92
2019-01-27T18:10:27.112Z,76.17
2019-01-27T18:13:07.636Z,76.95
2019-01-27T18:15:38.027Z,79.35
2019-01-27T18:18:08.358Z,78.92
2019-01-27T18:20:39.719Z,79.42
2019-01-27T18:23:10.105Z,77.40
2019-01-27T18:25:40.472Z,79.22
2019-01-27T18:28:10.735Z,80.30
2019-01-27T18:30:42.130Z,82.27
2019-01-27T18:33:12.519Z,80.72
2019-01-27T18:35:42.768Z,81.40
2019-01-27T18:38:12.994Z,80.28
2019-01-27T18:40:45.236Z,79.35
2019-01-27T18:43:15.595Z,79.82
2019-01-27T18:45:45.912Z,79.55
2019-01-27T18:48:16.256Z,79.30
2019-01-27T18:50:46.713Z,78.97
2019-01-27T18:53:49.520Z,86.25
2019-01-27T18:56:32.166Z,88.30
2019-01-27T18:59:27.725Z,90.67
2019-01-27T19:02:08.423Z,87.88
2019-01-27T19:05:01.647Z,92.72
2019-01-27T19:07:43.351Z,89.10
2019-01-27T19:10:43.664Z,92.17
2019-01-27T19:13:40.026Z,90.55
2019-01-27T19:16:35.896Z,90.47
2019-01-27T19:19:40.767Z,92.90
2019-01-27T19:22:38.841Z,94.30
2019-01-27T19:25:40.934Z,94.45
2019-01-27T19:28:40.299Z,90.20
2019-01-27T19:31:17.921Z,92.35
2019-01-27T19:34:16.458Z,90.10
2019-01-27T19:37:24.395Z,91.22
2019-01-27T19:40:20.357Z,92.55
2019-01-27T19:43:13.625Z,91.47
2019-01-27T19:46:15.783Z,91.55
2019-01-27T19:49:04.882Z,88.37
2019-01-27T19:51:52.010Z,90.00
2019-01-27T19:54:40.109Z,86.63
2019-01-27T19:57:29.336Z,91.47
2019-01-27T20:00:16.704Z,86.40
2019-01-27T20:03:11.868Z,89.32
2019-01-27T20:06:01.094Z,89.32
2019-01-27T20:08:53.311Z,91.97
2019-01-27T20:11:42.135Z,89.60
2019-01-27T20:14:32.530Z,90.77
2019-01-27T20:17:13.762Z,90.07
2019-01-27T20:19:52.727Z,100.90
2019-01-27T20:22:43.273Z,92.72
2019-01-27T20:25:48.092Z,91.95
2019-01-27T20:28:41.115Z,87.70
2019-01-27T20:31:30.339Z,85.70
2019-01-27T20:34:31.866Z,88.78
2019-01-27T20:37:08.964Z,97.27
2019-01-27T20:39:47.920Z,91.85
2019-01-27T20:42:24.064Z,93.78
2019-01-27T20:45:13.167Z,91.50
2019-01-27T20:48:03.913Z,89.40
2019-01-27T20:50:48.077Z,101.42
2019-01-27T20:53:32.495Z,120.20
2019-01-27T20:56:15.258Z,118.70
2019-01-27T20:58:54.019Z,122.62
2019-01-27T21:01:41.163Z,115.57
2019-01-27T21:04:39.887Z,120.72
2019-01-27T21:07:31.158Z,126.45
2019-01-27T21:10:29.157Z,122.20
2019-01-27T21:13:21.236Z,131.60
2019-01-27T21:16:20.626Z,123.65
2019-01-27T21:19:08.808Z,133.30
2019-01-27T21:21:39.489Z,132.32
2019-01-27T21:24:09.986Z,128.20
2019-01-27T21:26:40.440Z,134.37
2019-01-27T21:29:10.925Z,148.78
2019-01-27T21:31:41.433Z,129.60
2019-01-27T21:34:11.805Z,133.22
2019-01-27T21:36:42.025Z,125.87
2019-01-27T21:39:13.917Z,132.07
2019-01-27T21:41:48.107Z,121.90
2019-01-27T21:44:18.521Z,123.40
2019-01-27T21:46:49.827Z,127.92
2019-01-27T21:49:20.298Z,129.90
2019-01-27T21:51:50.758Z,132.12
2019-01-27T21:54:21.230Z,123.30
2019-01-27T21:56:52.198Z,124.35
2019-01-27T21:59:22.553Z,127.58
2019-01-27T22:01:52.932Z,135.32
2019-01-27T22:04:23.210Z,153.73
2019-01-27T22:06:53.623Z,134.22
2019-01-27T22:09:23.890Z,127.12
2019-01-27T22:11:54.158Z,134.97
2019-01-27T22:14:24.420Z,124.02
2019-01-27T22:16:54.899Z,124.85
2019-01-27T22:19:26.537Z,125.00
2019-01-27T22:21:58.426Z,128.12
2019-01-27T22:24:28.722Z,125.87
2019-01-27T22:26:59.422Z,126.87
2019-01-27T22:29:30.105Z,121.67
2019-01-27T22:32:00.846Z,122.50
2019-01-27T22:34:31.063Z,123.47
2019-01-27T22:37:01.355Z,127.62
2019-01-27T22:39:31.659Z,129.20
2019-01-27T22:42:02.241Z,131.85
2019-01-27T22:44:32.551Z,134.10
2019-01-27T22:47:02.822Z,129.27
2019-01-27T22:49:33.075Z,129.27
2019-01-27T22:52:03.463Z,130.95
2019-01-27T22:54:33.810Z,131.30
2019-01-27T22:57:04.173Z,130.95
2019-01-27T22:59:34.519Z,128.82
2019-01-27T23:02:05.140Z,126.53
2019-01-27T23:04:35.440Z,130.82
2019-01-27T23:07:05.744Z,129.65
2019-01-27T23:09:38.183Z,127.05
2019-01-27T23:12:08.436Z,128.05
2019-01-27T23:14:38.738Z,125.72
2019-01-27T23:17:09.021Z,124.22
2019-01-27T23:19:39.265Z,122.75
2019-01-27T23:22:09.664Z,124.42
2019-01-27T23:24:39.902Z,126.92
2019-01-27T23:27:11.285Z,124.58
2019-01-27T23:29:41.642Z,126.12
2019-01-27T23:32:11.982Z,122.78
2019-01-27T23:34:42.194Z,125.95
2019-01-27T23:37:12.537Z,122.53
2019-01-27T23:39:42.761Z,122.75
2019-01-27T23:42:13.302Z,121.72
2019-01-27T23:44:43.589Z,123.70
2019-01-27T23:47:13.858Z,120.95
2019-01-27T23:49:44.228Z,116.82
2019-01-27T23:52:14.453Z,120.10
2019-01-27T23:54:44.795Z,116.77
2019-01-27T23:57:16.006Z,119.33
2019-01-27T23:59:46.356Z,117.17
